createdAt,value
2022-08-05T00:00:00.255Z,6.45
2022-08-05T00:02:27.810Z,5.85
2022-08-05T00:04:56.256Z,6.23
2022-08-05T00:07:59.762Z,6.22
2022-08-05T00:10:11.294Z,6.25
2022-08-05T00:12:55.914Z,7.03
2022-08-05T00:15:55.550Z,6.28
2022-08-05T00:18:21.274Z,6.78
2022-08-05T00:20:49.244Z,6.80
2022-08-05T00:23:16.450Z,6.85
2022-08-05T00:25:46.136Z,6.95
2022-08-05T00:28:14.089Z,6.68
2022-08-05T00:30:44.079Z,6.07
2022-08-05T00:33:15.679Z,7.00
2022-08-05T00:36:16.062Z,7.15
2022-08-05T00:38:45.538Z,6.55
2022-08-05T00:41:13.527Z,6.70
2022-08-05T00:43:46.863Z,7.10
2022-08-05T00:46:16.032Z,6.82
2022-08-05T00:48:51.362Z,6.85
2022-08-05T00:51:51.194Z,7.10
2022-08-05T00:54:07.470Z,6.97
2022-08-05T00:56:34.626Z,7.55
2022-08-05T00:59:02.164Z,7.47
2022-08-05T01:01:48.754Z,8.85
2022-08-05T01:04:20.394Z,7.93
2022-08-05T01:06:55.035Z,8.00
2022-08-05T01:09:22.711Z,8.40
2022-08-05T01:11:52.297Z,7.28
2022-08-05T01:14:44.647Z,8.65
2022-08-05T01:17:23.355Z,7.38
2022-08-05T01:20:03.792Z,7.07
2022-08-05T01:22:57.347Z,7.60
2022-08-05T01:25:53.686Z,7.22
2022-08-05T01:28:51.915Z,7.70
2022-08-05T01:31:45.429Z,7.13
2022-08-05T01:34:42.586Z,7.30
2022-08-05T01:37:36.998Z,7.45
2022-08-05T01:40:12.777Z,7.75
2022-08-05T01:42:41.577Z,8.50
2022-08-05T01:45:09.910Z,7.97
2022-08-05T01:47:39.846Z,8.38
2022-08-05T01:50:15.679Z,7.82
2022-08-05T01:52:50.164Z,8.15
2022-08-05T01:55:20.844Z,8.32
2022-08-05T01:58:29.495Z,7.88
2022-08-05T02:03:24.333Z,8.65
2022-08-05T02:05:57.823Z,8.00
2022-08-05T02:08:29.022Z,8.10
2022-08-05T02:11:08.048Z,8.27
2022-08-05T02:13:53.529Z,8.48
2022-08-05T02:16:27.633Z,7.95
2022-08-05T02:19:00.147Z,7.90
2022-08-05T02:21:38.016Z,8.90
2022-08-05T02:24:18.724Z,8.32
2022-08-05T02:26:56.604Z,8.32
2022-08-05T02:30:00.052Z,9.40
2022-08-05T02:32:23.938Z,9.52
2022-08-05T02:35:02.163Z,9.07
2022-08-05T02:37:42.761Z,9.27
2022-08-05T02:40:17.144Z,10.82
2022-08-05T02:42:52.792Z,10.40
2022-08-05T02:45:24.020Z,12.25
2022-08-05T02:48:06.577Z,11.60
2022-08-05T02:50:38.344Z,11.98
2022-08-05T02:53:11.779Z,12.60
2022-08-05T02:55:55.079Z,12.90
2022-08-05T02:58:28.964Z,12.38
2022-08-05T03:01:01.764Z,10.02
2022-08-05T03:03:34.158Z,10.68
2022-08-05T03:06:56.650Z,10.48
2022-08-05T03:09:05.986Z,9.98
2022-08-05T03:11:56.548Z,9.82
2022-08-05T03:14:22.297Z,9.13
2022-08-05T03:16:49.594Z,9.88
2022-08-05T03:19:33.738Z,10.75
2022-08-05T03:22:04.915Z,10.05
2022-08-05T03:24:46.923Z,10.38
2022-08-05T03:27:14.516Z,9.60
2022-08-05T03:29:45.705Z,10.45
2022-08-05T03:32:31.415Z,9.82
2022-08-05T03:34:59.584Z,9.40
2022-08-05T03:39:59.433Z,9.02
2022-08-05T03:42:32.859Z,8.35
2022-08-05T03:45:21.464Z,8.55
2022-08-05T03:47:50.676Z,8.68
2022-08-05T03:50:18.811Z,7.82
2022-08-05T03:55:51.687Z,7.22
2022-08-05T03:56:12.103Z,8.35
2022-08-05T03:58:46.808Z,7.53
2022-08-05T04:01:20.724Z,7.82
2022-08-05T04:04:09.862Z,7.38
2022-08-05T04:06:37.789Z,7.70
2022-08-05T04:09:08.785Z,7.72
2022-08-05T04:11:47.082Z,9.15
2022-08-05T04:14:17.846Z,7.85
2022-08-05T04:16:45.582Z,8.52
2022-08-05T04:19:13.344Z,7.65
2022-08-05T04:22:05.187Z,6.97
2022-08-05T04:24:28.630Z,6.30
2022-08-05T04:26:58.064Z,5.97
2022-08-05T04:29:25.174Z,5.70
2022-08-05T04:31:54.296Z,5.35
2022-08-05T04:34:32.385Z,5.60
2022-08-05T04:37:00.835Z,5.93
2022-08-05T04:39:31.412Z,5.32
2022-08-05T04:41:59.348Z,5.57
2022-08-05T04:44:30.006Z,5.43
2022-08-05T04:46:59.286Z,4.88
2022-08-05T04:49:38.836Z,4.95
2022-08-05T04:52:15.155Z,4.70
2022-08-05T04:54:42.083Z,4.63
2022-08-05T04:57:09.028Z,4.72
2022-08-05T04:59:38.983Z,4.50
2022-08-05T05:02:36.541Z,4.55
2022-08-05T05:05:02.728Z,4.70
2022-08-05T05:07:32.878Z,4.50
2022-08-05T05:10:06.246Z,4.60
2022-08-05T05:12:33.555Z,4.00
2022-08-05T05:15:03.747Z,3.83
2022-08-05T05:17:56.566Z,4.57
2022-08-05T05:20:28.743Z,4.07
2022-08-05T05:23:08.011Z,4.07
2022-08-05T05:28:09.713Z,3.83
2022-08-05T05:30:39.321Z,4.03
2022-08-05T05:33:16.602Z,3.60
2022-08-05T05:35:46.936Z,3.60
2022-08-05T05:38:26.860Z,4.03
2022-08-05T05:40:57.574Z,4.25
2022-08-05T05:43:54.767Z,4.75
2022-08-05T05:46:17.598Z,4.40
2022-08-05T05:48:48.200Z,3.80
2022-08-05T05:51:23.269Z,3.67
2022-08-05T05:53:57.775Z,3.95
2022-08-05T05:56:33.138Z,4.32
2022-08-05T05:59:05.847Z,3.65
2022-08-05T06:01:37.551Z,4.13
2022-08-05T06:04:12.003Z,3.50
2022-08-05T06:06:42.658Z,3.30
2022-08-05T06:09:17.094Z,3.42
2022-08-05T06:11:59.066Z,3.70
2022-08-05T06:14:28.119Z,3.53
2022-08-05T06:16:57.094Z,3.40
2022-08-05T06:19:33.902Z,3.70
2022-08-05T06:22:04.692Z,3.40
2022-08-05T06:24:34.954Z,3.17
2022-08-05T06:27:04.092Z,3.20
2022-08-05T06:29:49.650Z,3.22
2022-08-05T06:32:26.217Z,3.47
2022-08-05T06:34:59.179Z,3.25
2022-08-05T06:37:39.412Z,3.10
2022-08-05T06:40:18.503Z,3.17
2022-08-05T06:42:52.722Z,2.97
2022-08-05T06:45:44.811Z,3.30
2022-08-05T06:48:35.970Z,2.60
2022-08-05T06:50:56.201Z,2.60
2022-08-05T06:53:28.290Z,2.95
2022-08-05T06:56:00.038Z,2.60
2022-08-05T06:58:29.904Z,2.65
2022-08-05T07:01:03.732Z,2.80
2022-08-05T07:03:32.545Z,2.30
2022-08-05T07:06:06.137Z,3.08
2022-08-05T07:08:43.226Z,2.50
2022-08-05T07:11:16.038Z,3.13
2022-08-05T07:14:02.942Z,2.42
2022-08-05T07:18:00.087Z,2.35
2022-08-05T07:22:28.481Z,2.53
2022-08-05T07:25:23.620Z,2.00
2022-08-05T07:27:58.772Z,2.10
2022-08-05T07:30:38.799Z,2.70
2022-08-05T07:33:15.931Z,2.90
2022-08-05T07:36:03.568Z,2.33
2022-08-05T07:38:42.901Z,2.50
2022-08-05T07:42:13.277Z,2.30
2022-08-05T07:46:48.399Z,2.60
2022-08-05T07:49:16.356Z,2.22
2022-08-05T07:51:53.717Z,2.08
2022-08-05T07:54:31.718Z,2.40
2022-08-05T07:57:22.505Z,2.35
2022-08-05T07:59:49.907Z,2.65
2022-08-05T08:02:17.783Z,2.78
2022-08-05T08:04:49.392Z,2.28
2022-08-05T08:07:23.066Z,2.15
2022-08-05T08:09:52.361Z,1.85
2022-08-05T08:12:36.903Z,2.40
2022-08-05T08:15:13.941Z,2.70
2022-08-05T08:17:49.836Z,2.22
2022-08-05T08:20:59.872Z,2.20
2022-08-05T08:24:00.968Z,2.30
2022-08-05T08:26:02.487Z,2.87
2022-08-05T08:28:37.192Z,2.50
2022-08-05T08:31:09.843Z,2.17
2022-08-05T08:33:42.312Z,2.38
2022-08-05T08:38:58.201Z,2.60
2022-08-05T08:41:51.989Z,2.50
2022-08-05T08:45:22.914Z,2.63
2022-08-05T08:47:47.238Z,2.40
2022-08-05T08:50:23.438Z,2.50
2022-08-05T08:52:54.217Z,2.58
2022-08-05T08:56:01.979Z,2.40
2022-08-05T08:58:12.846Z,2.40
2022-08-05T09:00:42.417Z,2.85
2022-08-05T09:03:11.760Z,2.22
2022-08-05T09:06:07.573Z,2.35
2022-08-05T09:08:30.410Z,2.40
2022-08-05T09:10:58.865Z,2.28
2022-08-05T09:13:31.564Z,2.35
2022-08-05T09:16:16.767Z,2.30
2022-08-05T09:18:44.645Z,2.17
2022-08-05T09:21:21.280Z,2.20
2022-08-05T09:24:10.461Z,2.07
2022-08-05T09:26:37.427Z,2.17
2022-08-05T09:29:07.216Z,2.10
2022-08-05T09:32:40.631Z,2.15
2022-08-05T09:34:23.192Z,2.60
2022-08-05T09:36:55.158Z,2.83
2022-08-05T09:39:39.507Z,2.60
2022-08-05T09:42:17.393Z,2.80
2022-08-05T09:44:56.224Z,2.75
2022-08-05T09:47:49.088Z,2.80
2022-08-05T09:50:38.849Z,2.50
2022-08-05T09:53:07.187Z,2.65
2022-08-05T09:55:57.168Z,2.50
2022-08-05T09:58:24.170Z,2.70
2022-08-05T10:00:59.475Z,2.57
2022-08-05T10:03:56.669Z,2.55
2022-08-05T10:06:19.440Z,2.70
2022-08-05T10:08:53.941Z,2.40
2022-08-05T10:11:23.181Z,2.45
2022-08-05T10:13:54.586Z,2.88
2022-08-05T10:16:37.934Z,2.78
2022-08-05T10:19:11.636Z,2.50
2022-08-05T10:21:40.763Z,2.67
2022-08-05T10:24:15.273Z,2.83
2022-08-05T10:26:48.900Z,2.60
2022-08-05T10:29:24.169Z,2.60
2022-08-05T10:32:54.432Z,3.00
2022-08-05T10:35:00.850Z,2.40
2022-08-05T10:37:41.341Z,2.70
2022-08-05T10:40:34.115Z,3.25
2022-08-05T10:43:23.216Z,2.83
2022-08-05T10:46:06.331Z,3.00
2022-08-05T10:48:56.551Z,2.65
2022-08-05T10:51:29.313Z,3.15
2022-08-05T10:54:01.703Z,2.63
2022-08-05T10:56:45.811Z,2.60
2022-08-05T11:00:03.740Z,3.05
2022-08-05T11:02:08.719Z,2.60
2022-08-05T11:04:54.718Z,2.63
2022-08-05T11:07:32.945Z,2.15
2022-08-05T11:10:22.539Z,2.20
2022-08-05T11:12:56.073Z,2.30
2022-08-05T11:16:00.099Z,2.03
2022-08-05T11:18:34.100Z,2.15
2022-08-05T11:21:11.637Z,2.20
2022-08-05T11:24:04.856Z,2.30
2022-08-05T11:26:32.448Z,2.10
2022-08-05T11:29:13.080Z,2.17
2022-08-05T11:31:57.454Z,2.65
2022-08-05T11:34:51.503Z,2.60
2022-08-05T11:38:29.050Z,2.75
2022-08-05T11:41:34.546Z,2.50
2022-08-05T11:44:05.874Z,2.20
2022-08-05T11:46:58.528Z,2.00
2022-08-05T11:49:34.124Z,2.10
2022-08-05T11:52:01.706Z,2.22
2022-08-05T11:54:40.720Z,2.45
2022-08-05T11:57:24.427Z,2.95
2022-08-05T11:59:53.634Z,3.00
2022-08-05T12:02:30.489Z,2.90
2022-08-05T12:05:07.987Z,3.28
2022-08-05T12:08:08.483Z,3.10
2022-08-05T12:10:38.569Z,2.50
2022-08-05T12:13:16.814Z,2.63
2022-08-05T12:15:49.955Z,2.45
2022-08-05T12:18:34.235Z,2.95
2022-08-05T12:21:15.384Z,2.65
2022-08-05T12:26:36.432Z,2.50
2022-08-05T12:29:09.526Z,3.22
2022-08-05T12:31:46.246Z,2.50
2022-08-05T12:34:21.346Z,3.00
2022-08-05T12:36:53.659Z,2.60
2022-08-05T12:39:21.583Z,2.83
2022-08-05T12:41:48.902Z,3.30
2022-08-05T12:44:21.765Z,2.67
2022-08-05T12:47:01.792Z,2.88
2022-08-05T12:50:03.420Z,2.72
2022-08-05T12:52:42.443Z,3.00
2022-08-05T12:55:22.085Z,2.72
2022-08-05T12:58:49.514Z,2.88
2022-08-05T13:02:04.933Z,2.83
2022-08-05T13:03:32.261Z,3.13
2022-08-05T13:06:01.943Z,2.83
2022-08-05T13:08:32.634Z,3.15
2022-08-05T13:11:02.187Z,3.00
2022-08-05T13:14:06.134Z,3.42
2022-08-05T13:16:19.986Z,3.13
2022-08-05T13:18:57.932Z,2.90
2022-08-05T13:24:08.586Z,3.08
2022-08-05T13:26:36.007Z,2.92
2022-08-05T13:29:03.228Z,3.05
2022-08-05T13:32:03.064Z,3.10
2022-08-05T13:34:21.465Z,3.08
2022-08-05T13:36:54.129Z,3.03
2022-08-05T13:40:12.771Z,3.38
2022-08-05T13:42:14.442Z,3.67
2022-08-05T13:44:45.686Z,3.70
2022-08-05T13:47:34.756Z,3.97
2022-08-05T13:50:04.637Z,3.60
2022-08-05T13:52:35.176Z,3.42
2022-08-05T13:55:07.932Z,3.35
2022-08-05T13:57:50.826Z,3.47
2022-08-05T14:00:26.861Z,3.47
2022-08-05T14:02:58.147Z,2.95
2022-08-05T14:05:48.177Z,3.35
2022-08-05T14:08:21.096Z,2.72
2022-08-05T14:10:59.783Z,3.45
2022-08-05T14:13:48.163Z,3.28
2022-08-05T14:16:17.106Z,2.83
2022-08-05T14:18:46.197Z,2.92
2022-08-05T14:22:07.361Z,3.42
2022-08-05T14:24:00.581Z,3.58
2022-08-05T14:26:38.742Z,3.15
2022-08-05T14:29:15.950Z,3.60
2022-08-05T14:32:02.882Z,3.60
2022-08-05T14:34:35.320Z,3.33
2022-08-05T14:37:04.704Z,3.90
2022-08-05T14:39:49.501Z,4.90
2022-08-05T14:42:22.487Z,3.47
2022-08-05T14:44:56.606Z,4.30
2022-08-05T14:48:03.727Z,3.88
2022-08-05T14:50:18.155Z,3.83
2022-08-05T14:52:53.594Z,3.90
2022-08-05T14:55:25.878Z,3.13
2022-08-05T14:58:10.956Z,3.80
2022-08-05T15:00:59.283Z,3.90
2022-08-05T15:03:33.010Z,3.92
2022-08-05T15:06:06.946Z,3.95
2022-08-05T15:08:59.488Z,3.85
2022-08-05T15:11:53.254Z,3.67
2022-08-05T15:14:20.091Z,3.83
2022-08-05T15:17:09.752Z,4.07
2022-08-05T15:19:51.708Z,4.07
2022-08-05T15:22:31.666Z,4.20
2022-08-05T15:24:59.487Z,4.38
2022-08-05T15:27:35.858Z,4.35
2022-08-05T15:30:05.062Z,4.00
2022-08-05T15:32:32.267Z,4.22
2022-08-05T15:34:59.218Z,3.78
2022-08-05T15:38:32.325Z,4.10
2022-08-05T15:41:01.026Z,4.13
2022-08-05T15:43:12.616Z,4.10
2022-08-05T15:46:00.638Z,3.75
2022-08-05T15:48:29.271Z,3.70
2022-08-05T15:50:56.818Z,3.58
2022-08-05T15:53:26.569Z,4.20
2022-08-05T15:56:09.117Z,4.10
2022-08-05T15:58:41.072Z,4.10
2022-08-05T16:01:17.162Z,5.90
2022-08-05T16:03:50.557Z,4.03
2022-08-05T16:06:19.851Z,3.65
2022-08-05T16:08:51.091Z,3.90
2022-08-05T16:11:42.824Z,4.15
2022-08-05T16:14:09.096Z,4.00
2022-08-05T16:16:42.983Z,4.65
2022-08-05T16:19:10.440Z,5.43
2022-08-05T16:22:00.777Z,4.38
2022-08-05T16:24:39.897Z,5.03
2022-08-05T16:29:50.097Z,4.00
2022-08-05T16:32:28.460Z,4.38
2022-08-05T16:34:56.994Z,4.15
2022-08-05T16:38:02.929Z,4.43
2022-08-05T16:40:24.840Z,4.25
2022-08-05T16:42:56.236Z,4.82
2022-08-05T16:46:04.279Z,4.75
2022-08-05T16:48:10.504Z,4.13
2022-08-05T16:50:38.055Z,4.53
2022-08-05T16:53:12.010Z,4.93
2022-08-05T16:55:46.917Z,5.05
2022-08-05T16:58:14.593Z,4.53
2022-08-05T17:00:48.175Z,5.40
2022-08-05T17:03:20.161Z,4.50
2022-08-05T17:05:53.935Z,4.03
2022-08-05T17:08:33.473Z,3.88
2022-08-05T17:11:16.620Z,4.25
2022-08-05T17:13:45.071Z,4.32
2022-08-05T17:16:32.577Z,4.57
2022-08-05T17:19:00.407Z,5.43
2022-08-05T17:21:35.484Z,8.98
2022-08-05T17:24:19.348Z,5.22
2022-08-05T17:26:53.185Z,9.48
2022-08-05T17:29:22.775Z,9.10
2022-08-05T17:32:01.064Z,11.48
2022-08-05T17:34:29.571Z,21.90
2022-08-05T17:39:34.348Z,8.75
2022-08-05T17:42:28.612Z,8.25
2022-08-05T17:44:51.049Z,6.38
2022-08-05T17:50:04.050Z,7.97
2022-08-05T17:52:53.400Z,7.03
2022-08-05T17:55:34.152Z,7.22
2022-08-05T17:58:02.680Z,7.82
2022-08-05T18:00:30.257Z,8.45
2022-08-05T18:02:57.874Z,8.30
2022-08-05T18:05:27.989Z,9.13
2022-08-05T18:07:56.859Z,8.27
2022-08-05T18:10:23.974Z,9.45
2022-08-05T18:12:51.750Z,8.55
2022-08-05T18:15:19.154Z,8.13
2022-08-05T18:17:59.269Z,12.45
2022-08-05T18:20:32.530Z,9.57
2022-08-05T18:23:09.342Z,8.40
2022-08-05T18:25:44.865Z,10.88
2022-08-05T18:28:16.426Z,9.10
2022-08-05T18:30:45.425Z,8.30
2022-08-05T18:33:16.895Z,9.57
2022-08-05T18:36:03.188Z,10.75
2022-08-05T18:38:36.043Z,11.07
2022-08-05T18:41:53.312Z,10.80
2022-08-05T18:43:54.749Z,11.98
2022-08-05T18:46:26.023Z,12.23
2022-08-05T18:48:56.060Z,12.60
2022-08-05T18:52:04.970Z,10.93
2022-08-05T18:54:31.906Z,10.98
2022-08-05T18:57:01.203Z,11.02
2022-08-05T19:02:27.708Z,10.80
2022-08-05T19:05:02.418Z,10.55
2022-08-05T19:07:50.231Z,11.68
2022-08-05T19:10:27.867Z,12.30
2022-08-05T19:12:57.092Z,11.27
2022-08-05T19:15:57.766Z,11.80
2022-08-05T19:18:20.725Z,11.85
2022-08-05T19:20:52.503Z,12.32
2022-08-05T19:24:03.878Z,13.45
2022-08-05T19:26:08.552Z,13.52
2022-08-05T19:28:43.158Z,14.75
2022-08-05T19:31:13.178Z,13.10
2022-08-05T19:33:48.470Z,13.85
2022-08-05T19:36:26.901Z,12.13
2022-08-05T19:39:00.574Z,12.38
2022-08-05T19:41:58.124Z,12.57
2022-08-05T19:44:17.505Z,12.30
2022-08-05T19:46:45.723Z,12.95
2022-08-05T19:49:16.997Z,14.38
2022-08-05T19:52:13.079Z,13.50
2022-08-05T19:54:34.545Z,14.38
2022-08-05T20:00:00.881Z,14.63
2022-08-05T20:02:27.050Z,15.55
2022-08-05T20:04:58.422Z,15.13
2022-08-05T20:07:48.369Z,14.93
2022-08-05T20:10:14.104Z,16.35
2022-08-05T20:12:46.155Z,15.77
2022-08-05T20:15:23.318Z,14.98
2022-08-05T20:18:10.922Z,16.38
2022-08-05T20:20:56.244Z,14.32
2022-08-05T20:26:16.248Z,13.77
2022-08-05T20:28:50.520Z,12.57
2022-08-05T20:31:21.857Z,13.38
2022-08-05T20:33:55.969Z,11.98
2022-08-05T20:36:24.203Z,11.77
2022-08-05T20:38:54.654Z,12.65
2022-08-05T20:41:44.254Z,13.15
2022-08-05T20:44:17.822Z,13.05
2022-08-05T20:46:47.820Z,13.15
2022-08-05T20:49:15.251Z,12.95
2022-08-05T20:51:53.349Z,13.63
2022-08-05T20:54:21.031Z,13.05
2022-08-05T20:56:48.950Z,13.95
2022-08-05T20:59:19.277Z,12.93
2022-08-05T21:01:57.271Z,13.07
2022-08-05T21:04:27.036Z,13.35
2022-08-05T21:06:54.861Z,12.68
2022-08-05T21:09:22.969Z,13.32
2022-08-05T21:12:10.961Z,12.77
2022-08-05T21:14:38.457Z,12.68
2022-08-05T21:17:06.288Z,14.20
2022-08-05T21:19:47.288Z,12.40
2022-08-05T21:22:18.555Z,12.48
2022-08-05T21:24:57.039Z,13.23
2022-08-05T21:27:24.771Z,12.30
2022-08-05T21:29:56.399Z,12.38
2022-08-05T21:35:08.638Z,11.88
2022-08-05T21:37:52.949Z,13.02
2022-08-05T21:40:23.177Z,12.88
2022-08-05T21:42:51.867Z,12.10
2022-08-05T21:45:25.185Z,12.70
2022-08-05T21:48:06.306Z,12.80
2022-08-05T21:50:36.618Z,12.50
2022-08-05T21:56:04.866Z,12.27
2022-08-05T21:58:32.646Z,11.88
2022-08-05T22:01:00.410Z,12.25
2022-08-05T22:03:52.168Z,11.95
2022-08-05T22:06:22.511Z,12.18
2022-08-05T22:08:52.223Z,12.07
2022-08-05T22:11:35.126Z,12.38
2022-08-05T22:14:06.006Z,11.85
2022-08-05T22:16:55.934Z,12.60
2022-08-05T22:20:02.970Z,12.35
2022-08-05T22:22:14.546Z,11.57
2022-08-05T22:25:00.610Z,12.05
2022-08-05T22:28:08.035Z,12.63
2022-08-05T22:30:32.262Z,11.80
2022-08-05T22:33:03.485Z,13.05
2022-08-05T22:35:48.161Z,13.68
2022-08-05T22:38:18.936Z,13.35
2022-08-05T22:40:49.351Z,12.00
2022-08-05T22:43:37.124Z,12.68
2022-08-05T22:46:11.907Z,12.73
2022-08-05T22:48:42.192Z,12.48
2022-08-05T22:51:15.776Z,13.75
2022-08-05T22:56:30.230Z,12.82
2022-08-05T22:59:00.105Z,12.50
2022-08-05T23:01:50.853Z,12.90
2022-08-05T23:04:17.441Z,12.35
2022-08-05T23:06:44.464Z,12.43
2022-08-05T23:09:27.772Z,13.23
2022-08-05T23:11:59.794Z,13.32
2022-08-05T23:14:32.316Z,13.43
2022-08-05T23:17:24.504Z,13.82
2022-08-05T23:20:02.412Z,12.45
2022-08-05T23:22:30.829Z,12.40
2022-08-05T23:24:58.169Z,12.80
2022-08-05T23:27:31.235Z,13.45
2022-08-05T23:30:00.970Z,13.48
2022-08-05T23:32:28.573Z,14.02
2022-08-05T23:34:56.694Z,13.82
2022-08-05T23:37:23.648Z,14.80
2022-08-05T23:39:54.956Z,15.30
2022-08-05T23:42:23.589Z,14.63
2022-08-05T23:44:57.324Z,14.15
2022-08-05T23:47:25.089Z,14.07
2022-08-05T23:49:55.625Z,13.75
2022-08-05T23:52:27.820Z,13.93
2022-08-05T23:55:21.711Z,13.68
2022-08-05T23:57:52.773Z,13.73
